createdAt,value
2022-12-08T00:00:27.168Z,2.01
2022-12-08T00:02:53.991Z,1.64
2022-12-08T00:05:39.344Z,1.70
2022-12-08T00:08:24.815Z,1.27
2022-12-08T00:10:51.505Z,1.46
2022-12-08T00:13:18.220Z,1.68
2022-12-08T00:15:44.867Z,1.85
2022-12-08T00:18:12.208Z,1.83
2022-12-08T00:20:38.925Z,2.02
2022-12-08T00:23:05.731Z,1.80
2022-12-08T00:25:36.515Z,1.59
2022-12-08T00:28:03.349Z,1.59
2022-12-08T00:30:30.004Z,1.38
2022-12-08T00:32:56.774Z,1.57
2022-12-08T00:35:23.445Z,1.68
2022-12-08T00:37:50.183Z,1.56
2022-12-08T00:40:16.921Z,1.61
2022-12-08T00:42:43.549Z,1.90
2022-12-08T00:45:10.756Z,1.70
2022-12-08T00:47:37.387Z,1.30
2022-12-08T00:50:05.179Z,1.49
2022-12-08T00:52:31.958Z,1.48
2022-12-08T00:54:58.616Z,1.74
2022-12-08T00:57:25.274Z,1.49
2022-12-08T00:59:51.942Z,1.87
2022-12-08T01:02:18.581Z,1.61
2022-12-08T01:04:45.630Z,1.46
2022-12-08T01:07:12.362Z,1.33
2022-12-08T01:09:39.050Z,1.15
2022-12-08T01:12:06.789Z,1.06
2022-12-08T01:14:33.567Z,1.75
2022-12-08T01:17:00.280Z,1.12
2022-12-08T01:19:27.024Z,1.13
2022-12-08T01:21:53.889Z,1.41
2022-12-08T01:24:21.517Z,1.44
2022-12-08T01:26:49.616Z,1.73
2022-12-08T01:29:16.400Z,1.33
2022-12-08T01:31:43.075Z,1.14
2022-12-08T01:34:11.491Z,1.44
2022-12-08T01:36:38.587Z,1.36
2022-12-08T01:39:13.947Z,1.55
2022-12-08T01:41:40.716Z,1.29
2022-12-08T01:44:08.385Z,1.68
2022-12-08T01:46:43.569Z,1.65
2022-12-08T01:49:15.716Z,1.56
2022-12-08T01:51:49.072Z,1.16
2022-12-08T01:54:16.411Z,1.37
2022-12-08T01:56:49.352Z,1.68
2022-12-08T01:59:17.422Z,1.41
2022-12-08T02:01:44.143Z,1.40
2022-12-08T02:04:11.306Z,1.51
2022-12-08T02:06:43.556Z,1.48
2022-12-08T02:09:10.676Z,1.56
2022-12-08T02:11:37.391Z,1.77
2022-12-08T02:14:08.399Z,1.83
2022-12-08T02:17:14.616Z,1.54
2022-12-08T02:19:50.406Z,1.69
2022-12-08T02:22:45.405Z,1.61
2022-12-08T02:25:22.407Z,1.68
2022-12-08T02:28:06.983Z,1.54
2022-12-08T02:30:54.895Z,1.71
2022-12-08T02:33:59.077Z,1.70
2022-12-08T02:36:36.103Z,1.76
2022-12-08T02:39:25.787Z,1.73
2022-12-08T02:42:02.407Z,1.64
2022-12-08T02:44:38.132Z,1.64
2022-12-08T02:47:13.787Z,1.88
2022-12-08T02:49:40.451Z,1.39
2022-12-08T02:52:12.941Z,1.73
2022-12-08T02:54:45.154Z,1.51
2022-12-08T02:57:33.544Z,1.62
2022-12-08T03:00:14.172Z,1.84
2022-12-08T03:02:56.782Z,1.67
2022-12-08T03:05:26.591Z,1.75
2022-12-08T03:07:56.354Z,1.84
2022-12-08T03:10:37.664Z,1.79
2022-12-08T03:13:17.249Z,1.58
2022-12-08T03:15:47.553Z,1.73
2022-12-08T03:18:17.191Z,2.01
2022-12-08T03:20:46.305Z,1.88
2022-12-08T03:23:16.530Z,1.84
2022-12-08T03:25:57.941Z,1.96
2022-12-08T03:28:25.285Z,1.83
2022-12-08T03:30:56.000Z,1.66
2022-12-08T03:33:27.801Z,1.81
2022-12-08T03:35:55.674Z,1.74
2022-12-08T03:38:23.241Z,1.95
2022-12-08T03:41:10.153Z,1.82
2022-12-08T03:43:37.427Z,2.12
2022-12-08T03:46:04.387Z,2.00
2022-12-08T03:48:31.211Z,2.03
2022-12-08T03:50:57.890Z,1.79
2022-12-08T03:53:24.559Z,1.99
2022-12-08T03:55:52.790Z,1.75
2022-12-08T03:58:19.421Z,1.68
2022-12-08T04:00:46.045Z,1.49
2022-12-08T04:03:12.739Z,1.44
2022-12-08T04:05:39.444Z,1.81
2022-12-08T04:08:06.378Z,2.06
2022-12-08T04:10:33.089Z,1.87
2022-12-08T04:12:59.777Z,1.78
2022-12-08T04:15:26.425Z,1.88
2022-12-08T04:17:53.079Z,1.85
2022-12-08T04:20:19.736Z,1.84
2022-12-08T04:22:46.409Z,1.82
2022-12-08T04:25:13.158Z,2.02
2022-12-08T04:27:39.794Z,2.13
2022-12-08T04:30:07.466Z,2.18
2022-12-08T04:32:45.792Z,2.22
2022-12-08T04:35:14.119Z,2.00
2022-12-08T04:37:40.959Z,1.89
2022-12-08T04:40:08.164Z,1.59
2022-12-08T04:42:34.784Z,1.75
2022-12-08T04:45:01.417Z,1.44
2022-12-08T04:47:28.145Z,1.47
2022-12-08T04:49:54.857Z,1.53
2022-12-08T04:52:21.696Z,1.51
2022-12-08T04:54:48.528Z,1.38
2022-12-08T04:57:15.377Z,1.30
2022-12-08T04:59:42.021Z,1.82
2022-12-08T05:02:08.939Z,1.35
2022-12-08T05:04:35.694Z,1.71
2022-12-08T05:07:02.664Z,1.93
2022-12-08T05:09:29.519Z,2.00
2022-12-08T05:11:56.149Z,1.81
2022-12-08T05:14:23.141Z,1.79
2022-12-08T05:16:50.144Z,1.45
2022-12-08T05:19:17.115Z,1.83
2022-12-08T05:21:43.986Z,1.52
2022-12-08T05:24:10.936Z,1.58
2022-12-08T05:26:37.673Z,1.24
2022-12-08T05:29:04.507Z,1.43
2022-12-08T05:31:31.620Z,1.40
2022-12-08T05:34:02.829Z,1.47
2022-12-08T05:36:30.009Z,1.34
2022-12-08T05:38:58.304Z,1.55
2022-12-08T05:41:25.254Z,1.73
2022-12-08T05:43:51.997Z,1.75
2022-12-08T05:46:19.567Z,1.51
2022-12-08T05:48:46.373Z,1.10
2022-12-08T05:51:20.738Z,1.22
2022-12-08T05:53:49.711Z,1.64
2022-12-08T05:56:16.816Z,1.80
2022-12-08T05:58:43.709Z,1.66
2022-12-08T06:01:28.721Z,1.94
2022-12-08T06:03:57.320Z,1.53
2022-12-08T06:06:24.447Z,1.81
2022-12-08T06:08:51.612Z,1.66
2022-12-08T06:11:29.528Z,1.56
2022-12-08T06:13:57.854Z,1.87
2022-12-08T06:16:26.336Z,1.71
2022-12-08T06:18:53.614Z,1.58
2022-12-08T06:21:21.034Z,1.83
2022-12-08T06:23:49.857Z,1.50
2022-12-08T06:26:17.194Z,1.70
2022-12-08T06:28:54.522Z,1.72
2022-12-08T06:31:24.680Z,1.62
2022-12-08T06:33:54.200Z,1.81
2022-12-08T06:36:24.246Z,1.75
2022-12-08T06:38:54.125Z,1.83
2022-12-08T06:41:20.852Z,1.86
2022-12-08T06:43:50.191Z,1.76
2022-12-08T06:46:19.302Z,1.51
2022-12-08T06:48:50.668Z,2.01
2022-12-08T06:51:19.723Z,1.83
2022-12-08T06:53:47.495Z,1.39
2022-12-08T07:13:46.893Z,1.87
2022-12-08T07:24:35.422Z,1.61
2022-12-08T07:27:02.634Z,1.95
2022-12-08T07:29:32.600Z,1.98
2022-12-08T07:31:59.417Z,2.45
2022-12-08T07:34:26.211Z,2.20
2022-12-08T07:36:53.079Z,2.37
2022-12-08T07:39:19.859Z,2.03
2022-12-08T07:41:46.710Z,1.99
2022-12-08T07:44:13.612Z,2.16
2022-12-08T07:46:40.505Z,1.87
2022-12-08T07:49:07.357Z,1.93
2022-12-08T07:51:34.111Z,2.29
2022-12-08T07:54:01.061Z,2.15
2022-12-08T07:56:27.882Z,2.12
2022-12-08T07:58:54.594Z,2.19
2022-12-08T08:01:29.495Z,2.52
2022-12-08T08:03:58.473Z,2.40
2022-12-08T08:06:25.465Z,2.14
2022-12-08T08:08:52.173Z,2.16
2022-12-08T08:11:21.668Z,2.28
2022-12-08T08:13:50.130Z,2.03
2022-12-08T08:16:17.064Z,2.05
2022-12-08T08:18:43.971Z,1.96
2022-12-08T08:23:57.562Z,2.19
2022-12-08T08:26:24.381Z,2.43
2022-12-08T08:28:51.169Z,2.25
2022-12-08T08:33:59.090Z,2.33
2022-12-08T08:36:28.261Z,2.31
2022-12-08T08:38:54.906Z,2.16
2022-12-08T08:41:21.592Z,2.04
2022-12-08T08:43:48.361Z,2.52
2022-12-08T08:46:15.115Z,2.08
2022-12-08T08:48:42.441Z,2.15
2022-12-08T08:51:11.402Z,2.38
2022-12-08T08:53:38.420Z,1.97
2022-12-08T08:56:13.551Z,2.47
2022-12-08T08:58:40.607Z,2.45
2022-12-08T09:01:07.478Z,2.40
2022-12-08T09:03:34.288Z,2.62
2022-12-08T09:06:01.022Z,2.48
2022-12-08T09:08:27.915Z,2.48
2022-12-08T09:10:54.932Z,2.24
2022-12-08T09:13:22.400Z,2.61
2022-12-08T09:15:49.536Z,2.81
2022-12-08T09:18:16.314Z,2.28
2022-12-08T09:20:43.043Z,2.49
2022-12-08T09:23:09.862Z,2.40
2022-12-08T09:25:36.822Z,2.76
2022-12-08T09:28:03.623Z,2.39
2022-12-08T09:30:31.541Z,2.53
2022-12-08T09:32:58.260Z,2.52
2022-12-08T09:35:24.924Z,2.34
2022-12-08T09:37:51.651Z,2.77
2022-12-08T09:40:21.555Z,2.67
2022-12-08T09:42:55.879Z,2.33
2022-12-08T09:45:27.114Z,2.33
2022-12-08T09:48:03.236Z,2.96
2022-12-08T09:50:35.619Z,2.79
2022-12-08T09:53:45.733Z,2.90
2022-12-08T09:56:23.769Z,3.34
2022-12-08T09:58:58.562Z,2.68
2022-12-08T10:01:41.982Z,3.10
2022-12-08T10:04:20.469Z,2.66
2022-12-08T10:06:56.071Z,2.99
2022-12-08T10:09:43.997Z,3.14
2022-12-08T10:12:48.125Z,2.84
2022-12-08T10:15:50.358Z,2.85
2022-12-08T10:18:24.721Z,2.69
2022-12-08T10:20:52.259Z,2.42
2022-12-08T10:23:27.463Z,2.53
2022-12-08T10:26:07.633Z,2.96
2022-12-08T10:28:38.748Z,2.65
2022-12-08T10:31:22.319Z,2.74
2022-12-08T10:34:00.487Z,3.05
2022-12-08T10:36:49.979Z,3.01
2022-12-08T10:39:38.366Z,3.25
2022-12-08T10:42:32.397Z,3.20
2022-12-08T10:45:17.350Z,3.23
2022-12-08T10:48:01.220Z,2.77
2022-12-08T10:50:36.794Z,3.25
2022-12-08T10:53:09.781Z,3.02
2022-12-08T10:55:42.534Z,2.76
2022-12-08T10:58:24.308Z,3.07
2022-12-08T11:01:11.345Z,3.08
2022-12-08T11:03:43.913Z,3.08
2022-12-08T11:06:31.964Z,3.21
2022-12-08T11:09:18.699Z,3.22
2022-12-08T11:11:54.814Z,2.75
2022-12-08T11:14:26.268Z,3.17
2022-12-08T11:16:55.364Z,3.10
2022-12-08T11:19:27.989Z,3.26
2022-12-08T11:21:54.926Z,3.29
2022-12-08T11:24:31.138Z,3.00
2022-12-08T11:27:05.344Z,3.23
2022-12-08T11:29:33.991Z,3.31
2022-12-08T11:32:11.534Z,2.78
2022-12-08T11:34:46.785Z,3.02
2022-12-08T11:37:39.301Z,3.16
2022-12-08T11:40:30.867Z,3.57
2022-12-08T11:43:16.806Z,3.25
2022-12-08T11:45:44.269Z,3.27
2022-12-08T11:48:19.276Z,3.37
2022-12-08T11:50:50.794Z,3.33
2022-12-08T11:53:28.073Z,3.18
2022-12-08T11:56:00.605Z,3.33
2022-12-08T11:58:45.071Z,3.55
2022-12-08T12:01:23.453Z,3.68
2022-12-08T12:04:02.224Z,3.75
2022-12-08T12:06:54.898Z,3.38
2022-12-08T12:09:34.247Z,3.65
2022-12-08T12:12:33.712Z,3.29
2022-12-08T12:15:49.875Z,3.51
2022-12-08T12:18:28.949Z,3.21
2022-12-08T12:21:18.533Z,3.42
2022-12-08T12:23:59.529Z,3.47
2022-12-08T12:26:29.270Z,3.37
2022-12-08T12:29:08.078Z,3.10
2022-12-08T12:31:42.511Z,3.18
2022-12-08T12:34:23.446Z,3.29
2022-12-08T12:36:57.619Z,3.15
2022-12-08T12:39:34.151Z,3.15
2022-12-08T12:42:02.843Z,3.40
2022-12-08T12:44:29.467Z,3.69
2022-12-08T12:46:57.825Z,3.82
2022-12-08T12:49:39.899Z,3.82
2022-12-08T12:52:15.589Z,3.65
2022-12-08T12:55:11.376Z,3.88
2022-12-08T12:57:40.244Z,3.83
2022-12-08T13:00:09.651Z,3.56
2022-12-08T13:02:36.596Z,3.79
2022-12-08T13:05:10.940Z,3.63
2022-12-08T13:08:00.852Z,4.06
2022-12-08T13:10:32.137Z,3.48
2022-12-08T13:13:19.162Z,3.54
2022-12-08T13:16:17.152Z,3.62
2022-12-08T13:18:51.120Z,4.32
2022-12-08T13:21:23.915Z,4.45
2022-12-08T13:24:10.604Z,4.38
2022-12-08T13:26:48.768Z,4.26
2022-12-08T13:29:19.879Z,4.26
2022-12-08T13:31:51.237Z,4.24
2022-12-08T13:34:35.885Z,4.49
2022-12-08T13:37:11.743Z,4.33
2022-12-08T13:39:45.038Z,4.19
2022-12-08T13:42:25.022Z,4.26
2022-12-08T13:45:33.461Z,3.89
2022-12-08T13:55:07.199Z,3.94
2022-12-08T13:57:26.259Z,3.92
2022-12-08T13:59:53.131Z,3.64
2022-12-08T14:02:33.265Z,3.87
2022-12-08T14:07:50.026Z,3.72
2022-12-08T14:10:22.136Z,3.70
2022-12-08T14:12:55.651Z,3.88
2022-12-08T14:15:22.654Z,3.75
2022-12-08T14:17:54.671Z,3.81
2022-12-08T14:20:33.810Z,4.14
2022-12-08T14:23:09.177Z,3.81
2022-12-08T14:25:36.085Z,3.64
2022-12-08T14:28:04.714Z,4.06
2022-12-08T14:30:32.776Z,3.63
2022-12-08T14:33:02.216Z,3.69
2022-12-08T14:35:31.155Z,3.92
2022-12-08T14:38:00.686Z,3.89
2022-12-08T14:40:42.215Z,3.88
2022-12-08T14:43:08.913Z,4.35
2022-12-08T14:45:51.905Z,4.16
2022-12-08T14:48:25.691Z,4.11
2022-12-08T14:51:23.387Z,4.05
2022-12-08T14:54:09.580Z,4.14
2022-12-08T14:56:36.370Z,4.15
2022-12-08T14:59:11.917Z,4.01
2022-12-08T15:01:39.634Z,3.90
2022-12-08T15:04:19.362Z,4.08
2022-12-08T15:06:54.516Z,4.25
2022-12-08T15:09:43.498Z,4.24
2022-12-08T15:12:13.305Z,4.11
2022-12-08T15:14:54.860Z,3.82
2022-12-08T15:17:40.329Z,3.78
2022-12-08T15:20:27.576Z,3.58
2022-12-08T15:22:58.567Z,3.80
2022-12-08T15:25:25.639Z,3.48
2022-12-08T15:27:56.596Z,3.52
2022-12-08T15:30:23.948Z,3.47
2022-12-08T15:32:52.396Z,3.63
2022-12-08T15:35:19.171Z,3.43
2022-12-08T15:37:46.592Z,3.33
2022-12-08T15:40:19.863Z,3.27
2022-12-08T15:42:46.681Z,3.05
2022-12-08T15:45:14.687Z,3.55
2022-12-08T15:47:42.620Z,3.40
2022-12-08T15:50:22.090Z,3.76
2022-12-08T15:52:50.350Z,3.68
2022-12-08T15:55:19.503Z,3.52
2022-12-08T16:00:52.656Z,3.55
2022-12-08T16:09:17.208Z,3.34
2022-12-08T16:12:07.853Z,3.31
2022-12-08T16:17:23.439Z,3.32
2022-12-08T16:19:50.257Z,3.37
2022-12-08T16:25:22.451Z,3.34
2022-12-08T16:28:05.424Z,3.17
2022-12-08T16:30:39.280Z,3.52
2022-12-08T16:33:06.208Z,3.50
2022-12-08T16:35:33.247Z,3.19
2022-12-08T16:37:59.958Z,3.21
2022-12-08T16:40:26.638Z,3.08
2022-12-08T16:42:53.598Z,3.48
2022-12-08T16:45:25.218Z,3.28
2022-12-08T16:47:54.427Z,3.29
2022-12-08T16:50:27.326Z,3.14
2022-12-08T16:53:02.660Z,3.04
2022-12-08T16:55:29.731Z,3.03
2022-12-08T16:57:56.486Z,3.38
2022-12-08T17:00:25.829Z,3.32
2022-12-08T17:02:53.465Z,2.92
2022-12-08T17:05:22.808Z,3.26
2022-12-08T17:07:51.799Z,3.27
2022-12-08T17:10:21.025Z,3.08
2022-12-08T17:12:47.724Z,3.25
2022-12-08T17:15:18.067Z,3.60
2022-12-08T17:17:44.834Z,3.22
2022-12-08T17:20:29.675Z,3.23
2022-12-08T17:22:58.234Z,3.50
2022-12-08T17:25:26.196Z,3.16
2022-12-08T17:27:52.914Z,3.10
2022-12-08T17:30:19.850Z,3.15
2022-12-08T17:32:46.627Z,3.30
2022-12-08T17:35:14.390Z,3.34
2022-12-08T17:37:42.892Z,3.15
2022-12-08T17:40:09.947Z,3.27
2022-12-08T17:42:38.059Z,2.93
2022-12-08T17:45:06.752Z,3.11
2022-12-08T17:47:33.567Z,3.56
2022-12-08T17:50:00.964Z,3.07
2022-12-08T17:52:27.775Z,3.04
2022-12-08T17:54:54.488Z,3.07
2022-12-08T17:57:21.241Z,3.04
2022-12-08T17:59:48.003Z,2.99
2022-12-08T18:02:15.238Z,2.96
2022-12-08T18:04:41.985Z,3.30
2022-12-08T18:07:08.678Z,3.37
2022-12-08T18:09:35.432Z,3.27
2022-12-08T18:12:02.186Z,2.88
2022-12-08T18:14:28.926Z,3.08
2022-12-08T18:16:55.801Z,3.03
2022-12-08T18:19:22.659Z,3.11
2022-12-08T18:21:49.454Z,3.25
2022-12-08T18:24:20.965Z,3.21
2022-12-08T18:26:48.852Z,3.01
2022-12-08T18:29:15.802Z,3.22
2022-12-08T18:31:42.571Z,3.41
2022-12-08T18:34:09.269Z,3.11
2022-12-08T18:36:36.114Z,2.93
2022-12-08T18:39:08.768Z,2.74
2022-12-08T18:41:37.826Z,3.00
2022-12-08T18:44:04.868Z,2.91
2022-12-08T18:46:31.760Z,2.76
2022-12-08T18:48:59.610Z,2.75
2022-12-08T18:51:26.470Z,2.86
2022-12-08T18:56:36.690Z,2.82
2022-12-08T18:59:07.453Z,3.02
2022-12-08T19:01:36.637Z,2.76
2022-12-08T19:06:53.761Z,3.02
2022-12-08T19:09:20.982Z,2.62
2022-12-08T19:11:47.941Z,2.47
2022-12-08T19:14:15.193Z,2.74
2022-12-08T19:16:42.248Z,2.64
2022-12-08T19:19:09.473Z,2.45
2022-12-08T19:21:46.532Z,2.69
2022-12-08T19:24:13.651Z,2.61
2022-12-08T19:26:41.052Z,2.42
2022-12-08T19:29:07.845Z,2.37
2022-12-08T19:31:38.332Z,2.74
2022-12-08T19:34:09.442Z,2.71
2022-12-08T19:36:43.176Z,2.55
2022-12-08T19:42:41.298Z,2.65
2022-12-08T19:45:17.609Z,2.50
2022-12-08T19:47:44.816Z,2.19
2022-12-08T19:50:31.864Z,2.49
2022-12-08T19:52:59.382Z,2.39
2022-12-08T19:55:26.626Z,2.18
2022-12-08T19:57:54.896Z,2.28
2022-12-08T20:00:21.780Z,2.16
2022-12-08T20:02:49.235Z,2.10
2022-12-08T20:05:17.677Z,2.18
2022-12-08T20:07:45.456Z,2.05
2022-12-08T20:10:16.887Z,1.96
2022-12-08T20:12:43.673Z,2.06
2022-12-08T20:15:11.235Z,2.03
2022-12-08T20:17:38.737Z,2.21
2022-12-08T20:20:07.586Z,2.15
2022-12-08T20:22:34.924Z,2.25
2022-12-08T20:25:02.344Z,2.07
2022-12-08T20:27:29.263Z,2.32
2022-12-08T20:29:56.189Z,2.44
2022-12-08T20:32:22.982Z,2.48
2022-12-08T20:34:49.749Z,2.25
2022-12-08T20:37:16.591Z,2.21
2022-12-08T20:39:43.342Z,1.98
2022-12-08T20:42:13.931Z,2.28
2022-12-08T20:44:44.527Z,2.21
2022-12-08T20:47:12.333Z,2.17
2022-12-08T20:49:39.298Z,2.25
2022-12-08T20:52:06.107Z,2.33
2022-12-08T20:54:33.130Z,2.35
2022-12-08T20:57:00.782Z,2.47
2022-12-08T20:59:27.509Z,2.33
2022-12-08T21:01:54.573Z,2.12
2022-12-08T21:04:22.826Z,2.22
2022-12-08T21:06:50.279Z,2.34
2022-12-08T21:09:17.199Z,2.01
2022-12-08T21:11:44.544Z,2.17
2022-12-08T21:14:11.381Z,2.30
2022-12-08T21:16:38.291Z,2.22
2022-12-08T21:19:06.224Z,1.92
2022-12-08T21:21:33.238Z,2.09
2022-12-08T21:24:00.058Z,1.89
2022-12-08T21:26:27.063Z,1.88
2022-12-08T21:28:58.529Z,2.15
2022-12-08T21:31:31.870Z,2.28
2022-12-08T21:33:59.839Z,1.94
2022-12-08T21:36:26.846Z,2.14
2022-12-08T21:38:55.002Z,2.16
2022-12-08T21:41:42.463Z,2.13
2022-12-08T21:44:12.594Z,1.95
2022-12-08T21:46:39.556Z,2.04
2022-12-08T21:49:06.406Z,2.02
2022-12-08T21:51:35.157Z,2.12
2022-12-08T21:54:01.953Z,1.97
2022-12-08T21:56:28.902Z,1.96
2022-12-08T21:58:55.642Z,1.90
2022-12-08T22:01:22.354Z,1.91
2022-12-08T22:03:49.307Z,1.87
2022-12-08T22:06:16.425Z,1.99
2022-12-08T22:08:45.307Z,1.71
2022-12-08T22:11:15.228Z,1.74
2022-12-08T22:13:42.441Z,2.10
2022-12-08T22:16:11.644Z,1.93
2022-12-08T22:18:42.498Z,1.97
2022-12-08T22:21:14.140Z,2.11
2022-12-08T22:23:41.057Z,1.92
2022-12-08T22:26:08.767Z,2.10
2022-12-08T22:28:41.991Z,2.30
2022-12-08T22:31:15.673Z,2.45
2022-12-08T22:33:42.905Z,2.28
2022-12-08T22:36:19.434Z,2.04
2022-12-08T22:38:46.836Z,2.31
2022-12-08T22:41:13.581Z,2.29
2022-12-08T22:43:41.144Z,2.17
2022-12-08T22:46:17.317Z,2.16
2022-12-08T22:48:44.243Z,2.30
2022-12-08T22:51:11.345Z,2.12
2022-12-08T22:53:38.326Z,2.00
2022-12-08T22:56:10.455Z,2.11
2022-12-08T22:58:38.504Z,2.36
2022-12-08T23:01:06.281Z,2.19
2022-12-08T23:03:33.617Z,2.38
2022-12-08T23:06:01.450Z,2.31
2022-12-08T23:08:28.654Z,2.23
2022-12-08T23:10:55.902Z,2.20
2022-12-08T23:13:22.855Z,1.75
2022-12-08T23:15:50.128Z,2.36
2022-12-08T23:18:19.338Z,2.37
2022-12-08T23:20:47.628Z,2.19
2022-12-08T23:23:15.484Z,2.27
2022-12-08T23:25:43.287Z,2.25
2022-12-08T23:28:11.162Z,2.21
2022-12-08T23:30:41.005Z,1.94
2022-12-08T23:33:07.987Z,2.04
2022-12-08T23:35:34.855Z,1.92
2022-12-08T23:38:01.639Z,2.09
2022-12-08T23:40:28.338Z,2.02
2022-12-08T23:42:55.048Z,2.04
2022-12-08T23:45:22.086Z,2.00
2022-12-08T23:47:48.737Z,2.17
2022-12-08T23:50:15.450Z,2.18
2022-12-08T23:52:42.196Z,2.27
2022-12-08T23:55:09.442Z,2.19
2022-12-08T23:57:37.769Z,2.15
